Flight Track Log - Related Links

Times and Time Zones

All times are in EDT time to prevent confusion due to time zone crossing. See the ELJ309 flight status page for this flight to view local times or setup timezone preferences in your user account.

Time Position Orientation Groundspeed Altitude Reporting Facility
EDT Latitude Longitude Course Direction KTS MPH feet Rate Location/Type
Sun 02:58:51 PM 27.9833 -82.5333 356° North 167 192 700  Level Tampa TRACON
Sun 03:02:00 PM 28.2288 -82.5667 North  Level FlightAware Approximate
Sun 03:02:26 PM 28.2372 -82.5533 North 263 303 11,400  Level Jacksonville Center
Sun 03:03:26 PM 28.3247 -82.5742 348° North 290 334 13,900 2,500 Climbing Jacksonville Center
Sun 03:04:26 PM 28.4125 -82.5833 355° North 312 359 16,400 2,500 Climbing Jacksonville Center
Sun 03:05:26 PM 28.5086 -82.5878 358° North 323 372 18,900 2,300 Climbing Jacksonville Center
Sun 03:06:26 PM 28.6067 -82.5853 North 335 386 21,000 2,033 Climbing Jacksonville Center
Sun 03:07:27 PM 28.7047 -82.5919 357° North 346 398 23,000 1,950 Climbing Jacksonville Center
Sun 03:08:26 PM 28.8050 -82.6083 352° North 356 410 24,900 1,966 Climbing Jacksonville Center
Sun 03:09:26 PM 28.9050 -82.6222 353° North 356 410 26,900 1,785 Climbing Jacksonville Center
Sun 03:10:27 PM 29.0075 -82.6339 354° North 361 415 28,500 1,500 Climbing Jacksonville Center
Sun 03:11:26 PM 29.1139 -82.6503 352° North 373 429 29,900 756 Climbing Jacksonville Center
Sun 03:12:26 PM 29.2244 -82.6642 354° North 379 436 30,000 50 Climbing Jacksonville Center
Sun 03:13:27 PM 29.3478 -82.6806 353° North 408 470 30,000  Level Jacksonville Center
Sun 03:14:26 PM 29.4689 -82.6897 356° North 433 498 30,000  Level Jacksonville Center
Sun 03:15:26 PM 29.5858 -82.6944 358° North 447 514 30,000 300 Level Jacksonville Center
Sun 03:16:26 PM 29.7069 -82.6942 360° North 441 507 30,600 500 Climbing Jacksonville Center
Sun 03:17:26 PM 29.8239 -82.6939 360° North 434 499 31,000 200 Climbing Jacksonville Center
Sun 03:18:26 PM 29.9447 -82.6936 360° North 429 494 31,000  Level Jacksonville Center
Sun 03:19:26 PM 30.0783 -82.6861 North 429 494 31,000  Level Jacksonville Center
Sun 03:20:27 PM 30.1994 -82.6858 360° North 434 499 31,000  Level Jacksonville Center
Sun 03:21:27 PM 30.3122 -82.6856 360° North 441 507 31,000  Level Jacksonville Center
Sun 03:22:27 PM 30.4356 -82.6853 360° North 441 507 31,000  Level Jacksonville Center
Sun 03:23:26 PM 30.5586 -82.6611 10° North 441 507 31,000  Level Jacksonville Center
Sun 03:24:26 PM 30.6775 -82.6050 22° Northeast 434 499 31,000  Level Jacksonville Center
Sun 03:25:27 PM 30.7983 -82.5467 23° Northeast 451 519 31,000 -400 Level Jacksonville Center
Sun 03:26:26 PM 30.9194 -82.4881 23° Northeast 457 526 30,200 -1,160 Descending Jacksonville Center
Sun 03:27:26 PM 31.0444 -82.4247 23° Northeast 467 537 28,700 -1,550 Descending Jacksonville Center
Sun 03:28:26 PM 31.1675 -82.3656 22° Northeast 473 544 27,100 -1,550 Descending Jacksonville Center
Sun 03:29:26 PM 31.2925 -82.3042 23° Northeast 473 544 25,600 -1,537 Descending Jacksonville Center
Sun 03:30:27 PM 31.4217 -82.2425 22° Northeast 464 534 24,000 -1,289 Descending Jacksonville Center
Sun 03:31:27 PM 31.5403 -82.1881 21° North 459 528 23,000 -504 Descending Jacksonville Center
Sun 03:32:26 PM 31.6422 -82.1336 24° Northeast 453 521 23,000  Level Jacksonville Center
Sun 03:33:26 PM 31.7672 -82.0714 23° Northeast 448 516 23,000  Level Jacksonville Center
Sun 03:34:26 PM 31.8794 -82.0094 25° Northeast 443 510 23,000  Level Jacksonville Center
Sun 03:35:27 PM 31.9603 -81.9228 42° Northeast 438 504 23,000  Level Jacksonville Center
Sun 03:36:27 PM 32.0197 -81.7753 65° Northeast 443 510 23,000 -151 Level Jacksonville Center
Sun 03:37:26 PM 32.0478 -81.6475 75° East 443 510 22,700 -1,008 Descending Jacksonville Center
Sun 03:38:26 PM 32.0836 -81.4875 75° East 448 516 21,000 -1,500 Descending Jacksonville Center
Sun 03:39:26 PM 32.1133 -81.3594 75° East 454 522 19,700 -1,500 Descending Jacksonville Center
Sun 03:40:26 PM 32.1450 -81.2192 75° East 449 517 18,000 -1,636 Descending Jacksonville Center
Sun 03:41:27 PM 32.2081 -81.1028 57° Northeast 418 481 16,400 -1,587 Descending Jacksonville Center
Sun 03:42:27 PM 32.2775 -80.9956 53° Northeast 409 471 14,800 -1,664 Descending Jacksonville Center
Sun 03:43:26 PM 32.3508 -80.8786 53° Northeast 409 471 13,100 -1,700 Descending Jacksonville Center
Sun 03:44:27 PM 32.4181 -80.7686 54° Northeast 409 471 11,400 -1,587 Descending Jacksonville Center
Sun 03:45:27 PM 32.4831 -80.6711 52° Northeast 396 456 9,900 -1,300 Descending Jacksonville Center
Sun 03:46:27 PM 32.5339 -80.5861 55° Northeast 344 396 8,800 -1,300 Descending Jacksonville Center
Sun 03:47:27 PM 32.5722 -80.5161 57° Northeast 293 337 7,300 -1,600 Descending Jacksonville Center
Sun 03:48:27 PM 32.6161 -80.4164 62° Northeast 293 337 5,600 -1,500 Descending Jacksonville Center
Sun 03:49:27 PM 32.6500 -80.3364 63° Northeast 286 329 4,300 -1,450 Descending Jacksonville Center
Sun 03:50:27 PM 32.6861 -80.2639 59° Northeast 273 314 2,700 -1,400 Descending Jacksonville Center
Sun 03:51:27 PM 32.7203 -80.2011 57° Northeast 248 285 1,500 -600 Descending Jacksonville Center
Sun 03:52:27 PM 32.7506 -80.1483 56° Northeast 215 247 1,500 -250 Level Jacksonville Center
Sun 03:53:27 PM 32.7981 -80.1197 27° Northeast 190 219 1,000 -250 Descending Jacksonville Center
Sun 03:54:27 PM 32.8347 -80.0842 39° Northeast 177 204 1,000  Level Jacksonville Center
Sun 03:56:00 PM 32.8833 -80.0333 23° Northeast  Level FlightAware Approximate
Sun 04:03:00 PM 32.8986 -80.0405 23° Northeast  Level Estimated
Sun 04:04:00 PM 32.8986 -80.0405 23° Northeast  Level Estimated

Login

Don't have an account? Register now (free) for customized features, flight alerts, and more!